createdAt,value
2022-09-28T00:00:01.822Z,18.08
2022-09-28T00:05:26.169Z,18.05
2022-09-28T00:10:27.245Z,18.02
2022-09-28T00:15:28.542Z,17.94
2022-09-28T00:20:29.702Z,17.88
2022-09-28T00:25:31.481Z,17.91
2022-09-28T00:30:32.740Z,17.85
2022-09-28T00:35:34.209Z,17.93
2022-09-28T00:40:42.026Z,17.99
2022-09-28T00:45:44.423Z,17.98
2022-09-28T00:50:46.249Z,17.90
2022-09-28T00:55:53.922Z,17.79
2022-09-28T01:00:58.446Z,17.61
2022-09-28T01:06:03.385Z,17.35
2022-09-28T01:11:04.899Z,17.26
2022-09-28T01:16:26.735Z,17.29
2022-09-28T01:21:28.044Z,17.37
2022-09-28T01:26:29.012Z,17.39
2022-09-28T01:31:34.414Z,17.41
2022-09-28T01:36:45.658Z,17.52
2022-09-28T01:41:50.510Z,17.52
2022-09-28T01:46:52.943Z,17.33
2022-09-28T01:52:12.563Z,17.34
2022-09-28T01:57:20.823Z,17.30
2022-09-28T02:02:29.405Z,17.35
2022-09-28T02:07:37.637Z,17.33
2022-09-28T02:12:45.392Z,17.44
2022-09-28T02:17:47.036Z,17.35
2022-09-28T02:22:55.263Z,17.26
2022-09-28T02:28:04.279Z,17.08
2022-09-28T02:33:28.050Z,16.68
2022-09-28T02:38:32.441Z,16.35
2022-09-28T02:44:04.715Z,16.25
2022-09-28T02:49:43.695Z,16.12
2022-09-28T02:55:16.840Z,15.93
2022-09-28T03:00:21.960Z,15.92
2022-09-28T03:05:48.454Z,15.66
2022-09-28T03:11:04.726Z,15.77
2022-09-28T03:16:12.264Z,15.74
2022-09-28T03:21:14.984Z,15.92
2022-09-28T03:26:16.247Z,16.17
2022-09-28T03:31:17.388Z,16.16
2022-09-28T03:36:18.965Z,16.41
2022-09-28T03:41:20.756Z,16.64
2022-09-28T03:46:21.924Z,16.56
2022-09-28T03:51:23.141Z,16.63
2022-09-28T03:56:24.151Z,16.66
2022-09-28T04:01:25.331Z,16.55
2022-09-28T04:06:26.854Z,16.50
2022-09-28T04:11:42.874Z,16.50
2022-09-28T04:16:51.395Z,16.61
2022-09-28T04:21:52.443Z,16.65
2022-09-28T04:27:13.435Z,16.74
2022-09-28T04:32:14.479Z,16.79
2022-09-28T04:37:15.605Z,16.88
2022-09-28T04:42:16.686Z,16.98
2022-09-28T04:47:17.814Z,17.03
2022-09-28T04:52:18.920Z,17.17
2022-09-28T04:57:20.456Z,17.13
2022-09-28T05:02:21.881Z,17.21
2022-09-28T05:07:23.079Z,17.30
2022-09-28T05:12:24.519Z,17.30
2022-09-28T05:17:25.679Z,17.32
2022-09-28T05:22:26.654Z,17.80
2022-09-28T05:27:27.711Z,18.35
2022-09-28T05:32:29.203Z,17.78
2022-09-28T05:37:30.603Z,15.70
2022-09-28T05:42:31.655Z,14.70
2022-09-28T05:47:36.791Z,15.86
2022-09-28T05:52:38.222Z,16.94
2022-09-28T05:57:40.291Z,17.86
2022-09-28T06:02:41.345Z,18.21
2022-09-28T06:07:42.712Z,17.05
2022-09-28T06:12:44.795Z,15.35
2022-09-28T06:17:46.063Z,15.30
2022-09-28T06:22:51.100Z,16.77
2022-09-28T06:27:57.462Z,17.05
2022-09-28T06:33:00.890Z,17.80
2022-09-28T06:38:02.371Z,18.14
2022-09-28T06:43:09.513Z,16.43
2022-09-28T06:48:10.882Z,16.07
2022-09-28T06:53:13.575Z,17.40
2022-09-28T06:58:17.071Z,17.43
2022-09-28T07:03:20.886Z,17.43
2022-09-28T07:08:28.067Z,18.03
2022-09-28T07:13:48.779Z,17.90
2022-09-28T07:18:50.575Z,15.75
2022-09-28T07:23:54.194Z,15.35
2022-09-28T07:28:55.639Z,16.41
2022-09-28T07:33:58.044Z,17.26
2022-09-28T07:38:59.112Z,17.84
2022-09-28T07:44:05.292Z,18.09
2022-09-28T07:49:09.787Z,18.21
2022-09-28T07:54:13.483Z,17.58
2022-09-28T07:59:17.463Z,15.38
2022-09-28T08:04:19.747Z,15.71
2022-09-28T08:09:20.816Z,16.98
2022-09-28T08:14:22.362Z,17.41
2022-09-28T08:19:24.203Z,17.70
2022-09-28T08:24:30.174Z,17.98
2022-09-28T08:29:31.264Z,18.09
2022-09-28T08:34:33.450Z,17.56
2022-09-28T08:39:35.291Z,15.57
2022-09-28T08:44:47.303Z,15.58
2022-09-28T08:49:49.522Z,17.56
2022-09-28T08:54:53.747Z,18.49
2022-09-28T08:59:57.679Z,18.20
2022-09-28T09:05:01.979Z,16.12
2022-09-28T09:10:35.532Z,16.16
2022-09-28T09:16:01.863Z,17.82
2022-09-28T09:21:15.157Z,18.48
2022-09-28T09:26:26.441Z,18.38
2022-09-28T09:32:04.646Z,16.92
2022-09-28T09:37:24.448Z,18.41
2022-09-28T09:42:44.165Z,18.36
2022-09-28T09:47:53.009Z,16.56
2022-09-28T09:53:04.136Z,16.96
2022-09-28T09:58:25.816Z,19.66
2022-09-28T10:03:31.900Z,19.06
2022-09-28T10:08:57.693Z,17.48
2022-09-28T10:13:58.964Z,16.34
2022-09-28T10:19:00.414Z,16.67
2022-09-28T10:24:01.990Z,18.87
2022-09-28T10:29:10.811Z,18.51
2022-09-28T10:34:14.344Z,16.91
2022-09-28T10:39:28.384Z,16.95
2022-09-28T10:44:33.126Z,17.85
2022-09-28T10:49:46.608Z,16.12
2022-09-28T10:54:52.896Z,15.04
2022-09-28T10:59:54.090Z,15.68
2022-09-28T11:05:00.622Z,18.00
2022-09-28T11:10:03.370Z,18.17
2022-09-28T11:15:06.694Z,16.20
2022-09-28T11:20:28.208Z,15.90
2022-09-28T11:25:30.608Z,17.67
2022-09-28T11:30:41.648Z,16.75
2022-09-28T11:35:59.462Z,15.00
2022-09-28T11:41:22.426Z,16.07
2022-09-28T11:46:32.952Z,16.86
2022-09-28T11:51:36.872Z,15.85
2022-09-28T11:56:41.850Z,16.11
2022-09-28T12:02:12.969Z,17.77
2022-09-28T12:07:38.955Z,16.49
2022-09-28T12:12:56.922Z,16.33
2022-09-28T12:18:05.348Z,17.46
2022-09-28T12:23:14.541Z,16.27
2022-09-28T12:28:41.334Z,15.55
2022-09-28T12:33:47.163Z,15.04
2022-09-28T12:39:23.951Z,14.64
2022-09-28T12:44:41.085Z,15.71
2022-09-28T12:50:37.435Z,17.95
2022-09-28T12:55:35.614Z,16.82
2022-09-28T13:00:58.807Z,15.75
2022-09-28T13:06:25.000Z,15.11
2022-09-28T13:11:40.936Z,14.68
2022-09-28T13:17:19.513Z,14.81
2022-09-28T13:22:35.309Z,17.34
2022-09-28T13:27:45.702Z,17.54
2022-09-28T13:32:49.148Z,16.22
2022-09-28T13:38:16.776Z,15.57
2022-09-28T13:43:30.994Z,17.06
2022-09-28T13:48:58.459Z,16.68
2022-09-28T13:54:16.587Z,15.74
2022-09-28T13:59:28.215Z,17.30
2022-09-28T14:04:54.280Z,17.20
2022-09-28T14:10:20.339Z,15.85
2022-09-28T14:15:42.033Z,15.01
2022-09-28T14:20:59.358Z,14.31
2022-09-28T14:26:40.897Z,13.87
2022-09-28T14:31:43.026Z,13.63
2022-09-28T14:37:07.526Z,14.13
2022-09-28T14:42:16.622Z,14.49
2022-09-28T14:47:32.762Z,14.54
2022-09-28T14:53:12.793Z,14.32
2022-09-28T14:58:19.390Z,14.06
2022-09-28T15:03:22.341Z,13.81
2022-09-28T15:08:35.322Z,14.73
2022-09-28T15:13:40.191Z,17.40
2022-09-28T15:19:23.955Z,17.31
2022-09-28T15:24:32.858Z,15.79
2022-09-28T15:29:35.250Z,15.06
2022-09-28T15:34:55.414Z,14.46
2022-09-28T15:39:59.206Z,13.98
2022-09-28T15:45:22.195Z,13.61
2022-09-28T15:50:32.287Z,13.23
2022-09-28T15:55:38.728Z,13.94
2022-09-28T16:00:40.901Z,16.42
2022-09-28T16:05:59.924Z,16.89
2022-09-28T16:11:20.056Z,15.24
2022-09-28T16:16:30.368Z,14.21
2022-09-28T16:21:41.809Z,13.57
2022-09-28T16:26:43.316Z,13.05
2022-09-28T16:31:52.093Z,13.79
2022-09-28T16:36:54.742Z,16.36
2022-09-28T16:42:02.594Z,16.80
2022-09-28T16:47:06.862Z,15.08
2022-09-28T16:52:11.768Z,14.04
2022-09-28T16:57:14.431Z,14.51
2022-09-28T17:02:42.209Z,16.89
2022-09-28T17:07:39.882Z,17.04
2022-09-28T17:12:41.259Z,15.31
2022-09-28T17:17:42.366Z,14.25
2022-09-28T17:22:43.353Z,13.52
2022-09-28T17:27:46.940Z,12.96
2022-09-28T17:32:48.841Z,13.30
2022-09-28T17:37:49.928Z,14.81
2022-09-28T17:42:54.321Z,15.54
2022-09-28T17:47:55.608Z,15.91
2022-09-28T17:52:59.041Z,16.20
2022-09-28T17:58:01.515Z,15.71
2022-09-28T18:03:02.751Z,14.13
2022-09-28T18:08:06.015Z,13.18
2022-09-28T18:13:07.346Z,13.42
2022-09-28T18:18:09.673Z,14.73
2022-09-28T18:23:11.070Z,15.30
2022-09-28T18:28:12.968Z,15.65
2022-09-28T18:33:15.224Z,15.90
2022-09-28T18:38:16.701Z,16.13
2022-09-28T18:43:17.832Z,15.72
2022-09-28T18:48:18.916Z,14.27
2022-09-28T18:53:20.142Z,13.29
2022-09-28T18:58:21.318Z,13.58
2022-09-28T19:03:22.603Z,15.52
2022-09-28T19:08:27.572Z,15.80
2022-09-28T19:13:29.031Z,15.98
2022-09-28T19:18:30.573Z,16.21
2022-09-28T19:23:32.450Z,15.75
2022-09-28T19:28:34.133Z,14.30
2022-09-28T19:33:36.389Z,13.35
2022-09-28T19:38:38.620Z,13.58
2022-09-28T19:43:43.395Z,15.43
2022-09-28T19:48:44.584Z,16.50
2022-09-28T19:53:45.597Z,16.46
2022-09-28T19:58:46.777Z,14.51
2022-09-28T20:03:47.902Z,13.23
2022-09-28T20:08:49.599Z,12.92
2022-09-28T20:13:54.657Z,14.71
2022-09-28T20:18:59.858Z,15.78
2022-09-28T20:24:01.312Z,15.77
2022-09-28T20:29:06.850Z,13.70
2022-09-28T20:34:09.031Z,13.80
2022-09-28T20:39:10.986Z,15.05
2022-09-28T20:44:12.122Z,15.62
2022-09-28T20:49:13.193Z,15.90
2022-09-28T20:54:14.459Z,16.23
2022-09-28T20:59:15.835Z,16.49
2022-09-28T21:04:16.985Z,16.86
2022-09-28T21:09:18.255Z,16.44
2022-09-28T21:14:20.497Z,14.42
2022-09-28T21:19:23.499Z,13.75
2022-09-28T21:24:24.772Z,14.82
2022-09-28T21:29:26.084Z,15.41
2022-09-28T21:34:27.174Z,15.59
2022-09-28T21:39:28.177Z,15.74
2022-09-28T21:44:29.413Z,15.74
2022-09-28T21:49:30.849Z,15.86
2022-09-28T21:54:33.743Z,15.99
2022-09-28T21:59:34.958Z,16.09
2022-09-28T22:04:36.019Z,16.20
2022-09-28T22:09:37.205Z,16.24
2022-09-28T22:14:38.218Z,15.82
2022-09-28T22:19:40.913Z,14.16
2022-09-28T22:24:42.103Z,13.68
2022-09-28T22:29:43.825Z,14.65
2022-09-28T22:34:44.959Z,15.23
2022-09-28T22:39:46.650Z,16.16
2022-09-28T22:44:48.182Z,16.70
2022-09-28T22:49:49.342Z,16.16
2022-09-28T22:54:50.512Z,14.19
2022-09-28T22:59:51.730Z,12.96
2022-09-28T23:04:52.871Z,12.38
2022-09-28T23:09:57.026Z,14.03
2022-09-28T23:14:58.256Z,15.37
2022-09-28T23:19:59.331Z,16.12
2022-09-28T23:25:00.448Z,16.54
2022-09-28T23:30:01.589Z,16.00
2022-09-28T23:35:03.131Z,14.01
2022-09-28T23:40:06.147Z,13.57
2022-09-28T23:45:07.945Z,15.10
2022-09-28T23:50:09.148Z,16.02
2022-09-28T23:55:10.401Z,16.58
